createdAt,value
2018-12-01T00:00:41.190Z,96.00
2018-12-01T00:03:08.159Z,96.10
2018-12-01T00:05:35.158Z,95.90
2018-12-01T00:08:02.123Z,95.80
2018-12-01T00:10:29.093Z,95.50
2018-12-01T00:12:56.461Z,95.50
2018-12-01T00:15:24.931Z,95.60
2018-12-01T00:17:52.111Z,95.60
2018-12-01T00:20:20.602Z,95.80
2018-12-01T00:22:47.581Z,96.00
2018-12-01T00:25:14.548Z,96.30
2018-12-01T00:27:41.548Z,95.60
2018-12-01T00:30:10.951Z,95.80
2018-12-01T00:32:37.896Z,95.90
2018-12-01T00:35:06.380Z,95.70
2018-12-01T00:37:33.359Z,95.70
2018-12-01T00:40:00.321Z,95.70
2018-12-01T00:42:27.368Z,95.60
2018-12-01T00:44:54.331Z,95.70
2018-12-01T00:47:21.300Z,95.60
2018-12-01T00:49:48.304Z,95.50
2018-12-01T00:52:15.268Z,95.50
2018-12-01T00:54:42.244Z,95.50
2018-12-01T00:57:09.277Z,95.60
2018-12-01T00:59:36.208Z,95.50
2018-12-01T01:02:03.177Z,95.60
2018-12-01T01:04:30.183Z,96.00
2018-12-01T01:06:57.181Z,95.50
2018-12-01T01:09:24.150Z,95.50
2018-12-01T01:11:51.151Z,95.50
2018-12-01T01:14:18.625Z,95.80
2018-12-01T01:16:45.576Z,96.00
2018-12-01T01:19:12.529Z,96.10
2018-12-01T01:21:39.492Z,96.10
2018-12-01T01:24:06.470Z,96.10
2018-12-01T01:26:33.481Z,96.20
2018-12-01T01:29:00.470Z,96.20
2018-12-01T01:31:27.438Z,96.30
2018-12-01T01:33:54.426Z,96.30
2018-12-01T01:36:21.396Z,96.20
2018-12-01T01:38:48.361Z,96.20
2018-12-01T01:41:15.340Z,96.20
2018-12-01T01:43:42.304Z,96.20
2018-12-01T01:46:09.282Z,96.30
2018-12-01T01:48:36.260Z,96.30
2018-12-01T01:51:03.257Z,96.40
2018-12-01T01:53:30.250Z,96.40
2018-12-01T01:55:57.268Z,96.50
2018-12-01T01:58:24.236Z,96.50
2018-12-01T02:00:51.229Z,96.40
2018-12-01T02:03:18.225Z,96.50
2018-12-01T02:05:45.277Z,96.40
2018-12-01T02:08:12.301Z,96.40
2018-12-01T02:10:39.310Z,96.30
2018-12-01T02:13:06.273Z,96.20
2018-12-01T02:15:34.049Z,96.00
2018-12-01T02:18:01.034Z,96.00
2018-12-01T02:20:28.036Z,96.00
2018-12-01T02:22:54.998Z,95.80
2018-12-01T02:25:22.011Z,95.70
2018-12-01T02:27:49.001Z,95.60
2018-12-01T02:30:19.201Z,95.70
2018-12-01T02:32:46.480Z,95.80
2018-12-01T02:35:15.588Z,95.90
2018-12-01T02:37:42.539Z,96.20
2018-12-01T02:40:10.725Z,96.00
2018-12-01T02:42:37.977Z,96.10
2018-12-01T02:45:16.722Z,96.20
2018-12-01T02:47:43.687Z,96.30
2018-12-01T02:50:12.571Z,96.30
2018-12-01T02:52:39.573Z,96.30
2018-12-01T02:55:06.542Z,96.40
2018-12-01T02:57:33.541Z,96.30
2018-12-01T03:00:00.642Z,96.30
2018-12-01T03:02:27.615Z,96.30
2018-12-01T03:04:54.594Z,96.30
2018-12-01T03:07:21.597Z,96.40
2018-12-01T03:09:48.569Z,96.30
2018-12-01T03:12:15.535Z,96.20
2018-12-01T03:14:42.564Z,96.30
2018-12-01T03:17:09.749Z,96.20
2018-12-01T03:19:36.753Z,96.20
2018-12-01T03:22:03.987Z,96.00
2018-12-01T03:24:30.945Z,96.10
2018-12-01T03:26:57.911Z,96.00
2018-12-01T03:29:24.915Z,96.10
2018-12-01T03:31:51.868Z,96.00
2018-12-01T03:34:18.803Z,95.70
2018-12-01T03:36:45.768Z,96.00
2018-12-01T03:39:12.719Z,95.80
2018-12-01T03:41:39.664Z,95.70
2018-12-01T03:44:06.649Z,95.80
2018-12-01T03:46:33.594Z,96.20
2018-12-01T03:49:00.574Z,95.80
2018-12-01T03:51:27.529Z,95.70
2018-12-01T03:53:54.559Z,95.80
2018-12-01T03:56:21.495Z,95.70
2018-12-01T03:58:48.461Z,95.70
2018-12-01T04:01:15.403Z,95.70
2018-12-01T04:03:42.343Z,95.70
2018-12-01T04:06:09.341Z,96.00
2018-12-01T04:08:36.285Z,96.20
2018-12-01T04:11:03.241Z,96.00
2018-12-01T04:13:30.203Z,95.70
2018-12-01T04:15:57.159Z,96.40
2018-12-01T04:18:24.443Z,96.00
2018-12-01T04:20:51.417Z,95.60
2018-12-01T04:23:18.399Z,95.50
2018-12-01T04:25:45.364Z,95.90
2018-12-01T04:28:12.321Z,95.90
2018-12-01T04:30:39.332Z,96.10
2018-12-01T04:33:06.301Z,96.10
2018-12-01T04:35:33.268Z,96.10
2018-12-01T04:38:00.230Z,96.20
2018-12-01T04:40:27.176Z,96.30
2018-12-01T04:42:54.142Z,96.30
2018-12-01T04:45:21.089Z,96.40
2018-12-01T04:47:48.036Z,96.40
2018-12-01T04:50:16.242Z,96.50
2018-12-01T04:52:43.820Z,96.30
2018-12-01T04:55:12.063Z,96.30
2018-12-01T04:57:39.100Z,96.20
2018-12-01T05:00:09.040Z,96.30
2018-12-01T05:02:35.989Z,96.20
2018-12-01T05:05:03.406Z,96.00
2018-12-01T05:07:30.356Z,96.00
2018-12-01T05:09:57.319Z,96.00
2018-12-01T05:12:24.272Z,95.90
2018-12-01T05:14:51.234Z,95.80
2018-12-01T05:17:18.175Z,95.90
2018-12-01T05:19:45.748Z,95.70
2018-12-01T05:22:12.725Z,95.90
2018-12-01T05:24:39.685Z,95.90
2018-12-01T05:27:06.683Z,96.10
2018-12-01T05:29:33.680Z,96.00
2018-12-01T05:32:00.636Z,95.70
2018-12-01T05:34:27.599Z,95.60
2018-12-01T05:36:54.548Z,95.80
2018-12-01T05:39:21.509Z,96.00
2018-12-01T05:41:48.477Z,96.30
2018-12-01T05:44:15.445Z,96.20
2018-12-01T05:46:42.408Z,96.10
2018-12-01T05:49:09.425Z,96.20
2018-12-01T05:51:36.404Z,96.10
2018-12-01T05:54:03.360Z,96.00
2018-12-01T05:56:30.340Z,96.10
2018-12-01T05:58:57.292Z,96.20
2018-12-01T06:01:24.241Z,96.20
2018-12-01T06:03:51.225Z,96.10
2018-12-01T06:06:18.184Z,96.10
2018-12-01T06:08:45.155Z,96.00
2018-12-01T06:11:12.149Z,96.00
2018-12-01T06:13:39.102Z,96.10
2018-12-01T06:16:06.044Z,95.90
2018-12-01T06:18:33.024Z,95.80
2018-12-01T06:21:00.162Z,96.00
2018-12-01T06:23:27.104Z,96.10
2018-12-01T06:25:54.172Z,96.10
2018-12-01T06:28:21.153Z,96.10
2018-12-01T06:30:48.119Z,96.10
2018-12-01T06:33:15.083Z,96.10
2018-12-01T06:35:42.036Z,96.20
2018-12-01T06:38:08.985Z,96.30
2018-12-01T06:40:35.943Z,96.30
2018-12-01T06:43:02.894Z,96.60
2018-12-01T06:45:29.845Z,96.10
2018-12-01T06:47:56.843Z,95.90
2018-12-01T06:50:23.796Z,95.80
2018-12-01T06:52:51.987Z,95.70
2018-12-01T06:55:19.112Z,95.60
2018-12-01T06:57:46.405Z,95.50
2018-12-01T07:00:15.320Z,95.50
2018-12-01T07:02:43.072Z,95.30
2018-12-01T07:05:11.047Z,95.40
2018-12-01T07:07:37.994Z,95.40
2018-12-01T07:10:08.428Z,95.40
2018-12-01T07:12:35.380Z,95.30
2018-12-01T07:15:02.364Z,95.20
2018-12-01T07:17:29.389Z,95.10
2018-12-01T07:19:56.356Z,94.90
2018-12-01T07:22:23.487Z,94.90
2018-12-01T07:24:50.439Z,95.00
2018-12-01T07:27:17.406Z,95.10
2018-12-01T07:29:44.360Z,95.30
2018-12-01T07:32:11.325Z,95.30
2018-12-01T07:34:38.303Z,95.40
2018-12-01T07:37:05.261Z,95.30
2018-12-01T07:39:32.224Z,95.50
2018-12-01T07:41:59.203Z,95.30
2018-12-01T07:44:26.143Z,95.80
2018-12-01T07:46:53.129Z,95.20
2018-12-01T07:49:20.068Z,95.00
2018-12-01T07:51:47.021Z,94.80
2018-12-01T07:54:14.013Z,94.90
2018-12-01T07:56:40.968Z,94.80
2018-12-01T07:59:07.917Z,94.60
2018-12-01T08:01:34.881Z,94.60
2018-12-01T08:04:01.824Z,94.60
2018-12-01T08:06:28.871Z,94.50
2018-12-01T08:08:55.853Z,94.60
2018-12-01T08:11:22.809Z,94.60
2018-12-01T08:13:49.759Z,94.40
2018-12-01T08:16:16.752Z,94.40
2018-12-01T08:18:43.705Z,94.50
2018-12-01T08:21:10.662Z,94.10
2018-12-01T08:23:38.102Z,93.90
2018-12-01T08:26:05.277Z,94.30
2018-12-01T08:28:32.224Z,93.60
2018-12-01T08:30:59.214Z,93.30
2018-12-01T08:33:26.167Z,93.90
2018-12-01T08:35:53.209Z,93.20
2018-12-01T08:38:20.238Z,93.60
2018-12-01T08:40:47.223Z,93.00
2018-12-01T08:43:14.231Z,91.90
2018-12-01T08:45:41.161Z,92.00
2018-12-01T08:48:08.321Z,91.50
2018-12-01T08:50:35.841Z,91.50
2018-12-01T08:53:02.832Z,90.10
2018-12-01T08:55:29.779Z,89.90
2018-12-01T08:57:56.731Z,88.60
2018-12-01T09:00:40.827Z,88.60
2018-12-01T09:03:23.331Z,87.10
2018-12-01T09:05:51.215Z,86.40
2018-12-01T09:08:18.221Z,85.30
2018-12-01T09:10:45.181Z,85.90
2018-12-01T09:13:12.172Z,86.10
2018-12-01T09:15:39.145Z,87.30
2018-12-01T09:18:06.097Z,86.60
2018-12-01T09:20:33.075Z,87.00
2018-12-01T09:23:00.029Z,86.60
2018-12-01T09:25:27.469Z,87.30
2018-12-01T09:27:54.448Z,89.30
2018-12-01T09:30:23.481Z,87.70
2018-12-01T09:32:50.490Z,85.00
2018-12-01T09:35:17.466Z,86.00
2018-12-01T09:37:44.456Z,88.20
2018-12-01T09:40:13.392Z,88.20
2018-12-01T09:42:40.459Z,85.60
2018-12-01T09:45:22.011Z,86.30
2018-12-01T09:47:50.046Z,89.30
2018-12-01T09:50:17.004Z,87.50
2018-12-01T09:52:46.257Z,89.70
2018-12-01T09:55:15.373Z,88.80
2018-12-01T09:57:43.143Z,89.30
2018-12-01T10:00:12.309Z,89.20
2018-12-01T10:02:39.278Z,88.50
2018-12-01T10:05:08.564Z,88.80
2018-12-01T10:07:35.548Z,88.90
2018-12-01T10:10:02.561Z,88.30
2018-12-01T10:12:29.524Z,89.30
2018-12-01T10:14:56.488Z,89.20
2018-12-01T10:17:23.476Z,89.80
2018-12-01T10:19:50.437Z,89.50
2018-12-01T10:22:17.423Z,90.20
2018-12-01T10:24:44.410Z,90.30
2018-12-01T10:27:11.899Z,88.60
2018-12-01T10:29:38.875Z,89.00
2018-12-01T10:32:05.859Z,88.50
2018-12-01T10:34:32.820Z,89.30
2018-12-01T10:36:59.777Z,89.80
2018-12-01T10:39:27.482Z,88.20
2018-12-01T10:41:54.460Z,90.20
2018-12-01T10:44:21.433Z,87.80
2018-12-01T10:46:48.392Z,88.60
2018-12-01T10:49:15.341Z,88.60
2018-12-01T10:51:42.308Z,86.30
2018-12-01T10:54:09.300Z,87.20
2018-12-01T10:56:36.289Z,87.60
2018-12-01T10:59:03.283Z,87.80
2018-12-01T11:01:52.211Z,86.00
2018-12-01T11:04:24.749Z,87.30
2018-12-01T11:06:51.775Z,85.00
2018-12-01T11:09:18.767Z,87.10
2018-12-01T11:11:45.733Z,87.50
2018-12-01T11:14:12.710Z,85.70
2018-12-01T11:16:39.696Z,84.80
2018-12-01T11:19:06.661Z,86.30
2018-12-01T11:21:33.605Z,86.50
2018-12-01T11:24:00.605Z,84.90
2018-12-01T11:26:27.551Z,84.40
2018-12-01T11:28:54.959Z,86.00
2018-12-01T11:31:21.925Z,84.90
2018-12-01T11:33:48.891Z,85.10
2018-12-01T11:36:15.831Z,84.40
2018-12-01T11:38:42.800Z,85.00
2018-12-01T11:41:09.910Z,84.80
2018-12-01T11:43:36.832Z,82.90
2018-12-01T11:46:03.815Z,84.30
2018-12-01T11:48:30.765Z,83.50
2018-12-01T11:50:57.712Z,85.40
2018-12-01T11:53:24.673Z,86.10
2018-12-01T11:55:51.657Z,85.90
2018-12-01T11:58:18.628Z,84.70
2018-12-01T12:00:45.640Z,84.50
2018-12-01T12:03:12.597Z,82.70
2018-12-01T12:05:39.551Z,83.90
2018-12-01T12:08:24.606Z,83.60
2018-12-01T12:10:51.781Z,84.30
2018-12-01T12:13:19.787Z,82.50
2018-12-01T12:15:46.751Z,82.90
2018-12-01T12:20:47.137Z,81.80
2018-12-01T12:23:14.183Z,80.70
2018-12-01T12:25:41.143Z,80.70
2018-12-01T12:28:08.101Z,81.10
2018-12-01T12:30:35.500Z,82.00
2018-12-01T12:33:02.464Z,81.00
2018-12-01T12:35:29.460Z,79.60
2018-12-01T12:37:56.441Z,81.40
2018-12-01T12:40:25.104Z,81.40
2018-12-01T12:42:54.940Z,81.30
2018-12-01T12:45:21.895Z,81.40
2018-12-01T12:47:48.843Z,81.40
2018-12-01T12:50:16.879Z,78.20
2018-12-01T12:52:45.017Z,79.00
2018-12-01T12:55:16.768Z,78.50
2018-12-01T12:57:43.721Z,78.80
2018-12-01T13:00:13.544Z,79.10
2018-12-01T13:02:41.480Z,78.70
2018-12-01T13:05:10.299Z,78.60
2018-12-01T13:07:37.279Z,78.40
2018-12-01T13:10:08.871Z,79.30
2018-12-01T13:12:35.855Z,78.60
2018-12-01T13:15:02.903Z,80.60
2018-12-01T13:17:29.864Z,79.40
2018-12-01T13:19:56.820Z,78.10
2018-12-01T13:22:23.793Z,77.90
2018-12-01T13:24:50.744Z,77.60
2018-12-01T13:27:17.726Z,79.60
2018-12-01T13:29:44.715Z,78.20
2018-12-01T13:32:11.972Z,77.60
2018-12-01T13:34:38.932Z,77.80
2018-12-01T13:37:06.085Z,78.00
2018-12-01T13:39:33.035Z,79.80
2018-12-01T13:42:00.023Z,78.90
2018-12-01T13:46:04.036Z,85.30
2018-12-01T13:48:30.987Z,73.50
2018-12-01T13:50:57.931Z,71.10
2018-12-01T13:53:24.901Z,70.40
2018-12-01T13:55:51.855Z,69.60
2018-12-01T13:58:18.808Z,70.40
2018-12-01T14:00:45.957Z,69.20
2018-12-01T14:03:12.820Z,69.00
2018-12-01T14:05:40.891Z,69.10
2018-12-01T14:08:07.855Z,69.20
2018-12-01T14:10:36.272Z,69.20
2018-12-01T14:13:06.192Z,68.80
2018-12-01T14:15:33.185Z,69.70
2018-12-01T14:18:00.151Z,70.00
2018-12-01T14:20:27.095Z,72.00
2018-12-01T14:22:54.076Z,71.00
2018-12-01T14:25:21.592Z,72.00
2018-12-01T14:27:52.937Z,71.00
2018-12-01T14:30:19.985Z,70.90
2018-12-01T14:32:47.303Z,71.50
2018-12-01T14:35:17.634Z,71.80
2018-12-01T14:37:47.361Z,72.60
2018-12-01T14:40:14.338Z,72.80
2018-12-01T14:42:42.060Z,72.20
2018-12-01T14:45:15.488Z,72.70
2018-12-01T14:47:42.548Z,72.40
2018-12-01T14:50:10.797Z,72.30
2018-12-01T14:52:37.872Z,72.70
2018-12-01T14:55:09.535Z,73.00
2018-12-01T14:57:36.475Z,72.90
2018-12-01T15:00:07.825Z,73.10
2018-12-01T15:02:34.793Z,73.00
2018-12-01T15:05:01.823Z,73.00
2018-12-01T15:07:28.770Z,73.10
2018-12-01T15:09:55.725Z,72.90
2018-12-01T15:12:22.731Z,73.30
2018-12-01T15:14:49.740Z,72.40
2018-12-01T15:17:16.647Z,72.80
2018-12-01T15:19:43.607Z,72.20
2018-12-01T15:22:10.607Z,72.60
2018-12-01T15:24:37.811Z,72.80
2018-12-01T15:27:05.124Z,72.90
2018-12-01T15:29:32.120Z,73.20
2018-12-01T15:31:59.068Z,73.40
2018-12-01T15:34:26.569Z,73.40
2018-12-01T15:36:53.529Z,73.50
2018-12-01T15:39:27.038Z,73.00
2018-12-01T15:41:54.467Z,74.10
2018-12-01T15:44:21.492Z,73.80
2018-12-01T15:46:48.591Z,74.40
2018-12-01T15:49:15.552Z,74.20
2018-12-01T15:51:42.512Z,74.20
2018-12-01T15:54:09.467Z,74.30
2018-12-01T15:56:36.423Z,74.40
2018-12-01T15:59:03.397Z,75.00
2018-12-01T16:01:30.360Z,74.70
2018-12-01T16:03:57.347Z,74.80
2018-12-01T16:06:24.324Z,74.70
2018-12-01T16:08:52.144Z,75.20
2018-12-01T16:11:19.112Z,75.20
2018-12-01T16:13:46.092Z,75.30
2018-12-01T16:16:13.073Z,76.10
2018-12-01T16:18:40.031Z,75.30
2018-12-01T16:21:07.072Z,75.40
2018-12-01T16:23:34.003Z,75.20
2018-12-01T16:26:01.256Z,75.10
2018-12-01T16:28:28.337Z,74.80
2018-12-01T16:30:55.268Z,74.50
2018-12-01T16:33:22.221Z,74.90
2018-12-01T16:35:50.436Z,74.70
2018-12-01T16:38:20.561Z,74.60
2018-12-01T16:40:51.132Z,73.40
2018-12-01T16:43:18.076Z,73.80
2018-12-01T16:45:46.677Z,74.00
2018-12-01T16:48:13.644Z,74.50
2018-12-01T16:50:40.583Z,74.30
2018-12-01T16:53:09.288Z,74.30
2018-12-01T16:55:36.742Z,74.50
2018-12-01T16:58:03.747Z,74.20
2018-12-01T17:00:30.703Z,73.70
2018-12-01T17:02:58.637Z,73.50
2018-12-01T17:05:27.749Z,73.50
2018-12-01T17:07:54.916Z,74.00
2018-12-01T17:10:22.067Z,74.20
2018-12-01T17:12:52.439Z,74.30
2018-12-01T17:15:20.326Z,74.60
2018-12-01T17:17:47.313Z,74.60
2018-12-01T17:20:15.406Z,74.30
2018-12-01T17:22:52.853Z,74.70
2018-12-01T17:25:19.792Z,74.30
2018-12-01T17:27:47.504Z,74.60
2018-12-01T17:30:15.841Z,74.70
2018-12-01T17:32:42.794Z,74.40
2018-12-01T17:35:11.462Z,74.90
2018-12-01T17:37:39.344Z,74.40
2018-12-01T17:40:35.920Z,74.30
2018-12-01T17:43:03.580Z,74.70
2018-12-01T17:45:31.019Z,75.00
2018-12-01T17:47:57.965Z,75.20
2018-12-01T17:50:24.972Z,76.10
2018-12-01T17:52:54.298Z,75.30
2018-12-01T17:55:22.409Z,75.60
2018-12-01T17:57:50.169Z,75.90
2018-12-01T18:00:19.552Z,76.50
2018-12-01T18:02:47.411Z,76.50
2018-12-01T18:05:16.548Z,77.10
2018-12-01T18:07:43.551Z,77.50
2018-12-01T18:10:11.841Z,77.70
2018-12-01T18:12:39.129Z,78.10
2018-12-01T18:15:09.728Z,79.00
2018-12-01T18:17:37.029Z,78.50
2018-12-01T18:20:16.038Z,78.80
2018-12-01T18:22:44.197Z,78.60
2018-12-01T18:25:11.188Z,78.20
2018-12-01T18:27:38.184Z,78.50
2018-12-01T18:30:16.674Z,78.50
2018-12-01T18:32:44.392Z,79.20
2018-12-01T18:35:11.339Z,79.60
2018-12-01T18:37:38.551Z,80.30
2018-12-01T18:40:20.907Z,80.70
2018-12-01T18:42:48.280Z,81.00
2018-12-01T18:45:17.452Z,81.20
2018-12-01T18:47:44.789Z,81.50
2018-12-01T18:50:13.280Z,81.80
2018-12-01T18:52:40.943Z,82.00
2018-12-01T18:55:11.881Z,82.40
2018-12-01T18:57:38.820Z,82.60
2018-12-01T19:00:11.113Z,82.50
2018-12-01T19:02:40.408Z,82.90
2018-12-01T19:05:07.550Z,83.30
2018-12-01T19:07:37.906Z,83.30
2018-12-01T19:10:11.384Z,84.10
2018-12-01T19:12:38.417Z,83.10
2018-12-01T19:15:07.880Z,83.20
2018-12-01T19:17:34.851Z,82.90
2018-12-01T19:20:01.864Z,82.70
2018-12-01T19:22:28.795Z,82.60
2018-12-01T19:24:55.781Z,82.70
2018-12-01T19:27:22.745Z,82.50
2018-12-01T19:29:49.686Z,81.90
2018-12-01T19:32:16.660Z,81.40
2018-12-01T19:34:43.601Z,81.30
2018-12-01T19:37:10.540Z,81.60
2018-12-01T19:39:37.959Z,81.20
2018-12-01T19:42:05.677Z,80.80
2018-12-01T19:44:32.624Z,80.50
2018-12-01T19:46:59.991Z,80.00
2018-12-01T19:49:26.961Z,80.20
2018-12-01T19:51:53.933Z,80.20
2018-12-01T19:54:20.894Z,80.30
2018-12-01T19:56:47.847Z,80.10
2018-12-01T19:59:15.256Z,80.40
2018-12-01T20:01:42.327Z,80.50
2018-12-01T20:04:09.301Z,80.80
2018-12-01T20:06:36.243Z,80.60
2018-12-01T20:09:04.532Z,80.50
2018-12-01T20:11:31.475Z,80.70
2018-12-01T20:13:58.428Z,80.70
2018-12-01T20:16:38.582Z,80.70
2018-12-01T20:19:06.413Z,80.90
2018-12-01T20:21:33.561Z,81.00
2018-12-01T20:24:00.540Z,80.30
2018-12-01T20:26:27.740Z,80.30
2018-12-01T20:28:54.741Z,80.10
2018-12-01T20:31:21.732Z,80.50
2018-12-01T20:33:50.296Z,79.70
2018-12-01T20:36:19.609Z,79.30
2018-12-01T20:38:51.987Z,79.10
2018-12-01T20:41:19.372Z,79.00
2018-12-01T20:43:48.403Z,79.10
2018-12-01T20:46:17.219Z,79.40
2018-12-01T20:48:44.191Z,79.60
2018-12-01T20:51:11.161Z,79.50
2018-12-01T20:53:42.094Z,79.40
2018-12-01T20:56:17.481Z,79.40
2018-12-01T20:58:44.462Z,79.10
2018-12-01T21:01:13.644Z,78.90
2018-12-01T21:03:40.513Z,78.70
2018-12-01T21:06:09.008Z,78.70
2018-12-01T21:08:35.973Z,78.60
2018-12-01T21:11:06.075Z,78.60
2018-12-01T21:13:33.037Z,78.40
2018-12-01T21:15:59.979Z,78.40
2018-12-01T21:18:26.926Z,77.80
2018-12-01T21:20:53.875Z,78.00
2018-12-01T21:23:21.349Z,77.50
2018-12-01T21:25:48.304Z,77.30
2018-12-01T21:28:15.262Z,76.70
2018-12-01T21:30:43.407Z,76.80
2018-12-01T21:33:13.163Z,76.90
2018-12-01T21:35:40.136Z,76.70
2018-12-01T21:38:11.717Z,76.40
2018-12-01T21:40:39.579Z,76.20
2018-12-01T21:43:07.194Z,76.30
2018-12-01T21:45:34.635Z,76.50
2018-12-01T21:48:01.821Z,75.60
2018-12-01T21:50:28.771Z,75.00
2018-12-01T21:52:55.716Z,74.90
2018-12-01T21:55:23.467Z,74.50
2018-12-01T21:57:51.336Z,74.90
2018-12-01T22:00:21.477Z,74.40
2018-12-01T22:02:53.012Z,74.70
2018-12-01T22:05:21.891Z,74.50
2018-12-01T22:07:48.857Z,74.70
2018-12-01T22:10:16.182Z,74.70
2018-12-01T22:12:43.111Z,75.00
2018-12-01T22:15:13.232Z,75.40
2018-12-01T22:17:40.356Z,75.70
2018-12-01T22:20:10.613Z,75.30
2018-12-01T22:22:37.588Z,75.30
2018-12-01T22:25:06.393Z,75.40
2018-12-01T22:27:33.367Z,75.00
2018-12-01T22:30:00.332Z,75.30
2018-12-01T22:32:27.304Z,75.20
2018-12-01T22:34:54.242Z,75.10
2018-12-01T22:37:21.213Z,75.00
2018-12-01T22:39:48.170Z,75.20
2018-12-01T22:42:15.112Z,75.10
2018-12-01T22:44:42.064Z,74.80
2018-12-01T22:47:09.472Z,74.90
2018-12-01T22:49:36.424Z,75.10
2018-12-01T22:52:03.425Z,75.20
2018-12-01T22:54:30.403Z,75.40
2018-12-01T22:56:57.360Z,75.40
2018-12-01T22:59:24.319Z,75.50
2018-12-01T23:01:51.292Z,75.40
2018-12-01T23:04:18.255Z,75.40
2018-12-01T23:06:45.222Z,75.50
2018-12-01T23:09:12.193Z,74.90
2018-12-01T23:11:39.149Z,74.80
2018-12-01T23:14:06.093Z,74.90
2018-12-01T23:16:33.061Z,74.60
2018-12-01T23:19:00.005Z,74.30
2018-12-01T23:21:26.950Z,74.40
2018-12-01T23:23:53.952Z,73.70
2018-12-01T23:26:20.880Z,73.60
2018-12-01T23:28:47.821Z,73.80
2018-12-01T23:31:14.772Z,74.00
2018-12-01T23:33:41.740Z,73.80
2018-12-01T23:36:08.677Z,73.60
2018-12-01T23:38:35.739Z,74.10
2018-12-01T23:41:02.691Z,74.50
2018-12-01T23:43:29.712Z,74.90
2018-12-01T23:45:56.694Z,75.30
2018-12-01T23:48:24.197Z,75.50
2018-12-01T23:50:53.625Z,75.60
2018-12-01T23:53:21.083Z,74.90
2018-12-01T23:55:48.031Z,74.80
2018-12-01T23:58:14.977Z,74.50
